sensor_id;sensor_type;location;lat;lon;timestamp;temperature;humidity
42979;DHT22;28616;44.746;19.678;2023-05-07T00:01:48;15.00;99.90
42979;DHT22;28616;44.746;19.678;2023-05-07T00:04:14;15.00;99.90
42979;DHT22;28616;44.746;19.678;2023-05-07T00:06:40;14.90;99.90
42979;DHT22;28616;44.746;19.678;2023-05-07T00:09:06;14.90;99.90
42979;DHT22;28616;44.746;19.678;2023-05-07T00:11:32;14.80;99.90
42979;DHT22;28616;44.746;19.678;2023-05-07T00:13:58;14.80;99.90
42979;DHT22;28616;44.746;19.678;2023-05-07T00:16:24;14.50;99.90
42979;DHT22;28616;44.746;19.678;2023-05-07T00:18:50;14.40;99.90
42979;DHT22;28616;44.746;19.678;2023-05-07T00:21:16;14.40;99.90
42979;DHT22;28616;44.746;19.678;2023-05-07T00:23:42;14.40;99.90
42979;DHT22;28616;44.746;19.678;2023-05-07T00:26:08;14.40;99.90
42979;DHT22;28616;44.746;19.678;2023-05-07T00:28:33;14.40;99.90
42979;DHT22;28616;44.746;19.678;2023-05-07T00:30:59;14.30;99.90
42979;DHT22;28616;44.746;19.678;2023-05-07T00:33:25;14.30;99.90
42979;DHT22;28616;44.746;19.678;2023-05-07T00:35:52;14.20;99.90
42979;DHT22;28616;44.746;19.678;2023-05-07T00:38:19;14.20;99.90
42979;DHT22;28616;44.746;19.678;2023-05-07T00:40:48;14.10;99.90
42979;DHT22;28616;44.746;19.678;2023-05-07T00:43:13;14.10;99.90
42979;DHT22;28616;44.746;19.678;2023-05-07T00:45:40;14.10;99.90
42979;DHT22;28616;44.746;19.678;2023-05-07T00:48:06;14.10;99.90
42979;DHT22;28616;44.746;19.678;2023-05-07T00:50:32;14.00;99.90
42979;DHT22;28616;44.746;19.678;2023-05-07T00:52:58;13.80;99.90
42979;DHT22;28616;44.746;19.678;2023-05-07T00:55:25;13.70;99.90
42979;DHT22;28616;44.746;19.678;2023-05-07T00:57:51;13.70;99.90
42979;DHT22;28616;44.746;19.678;2023-05-07T01:00:17;13.60;99.90
42979;DHT22;28616;44.746;19.678;2023-05-07T01:02:43;13.60;99.90
42979;DHT22;28616;44.746;19.678;2023-05-07T01:05:12;13.60;99.90
42979;DHT22;28616;44.746;19.678;2023-05-07T01:07:40;13.60;99.90
42979;DHT22;28616;44.746;19.678;2023-05-07T01:10:07;13.60;99.90
42979;DHT22;28616;44.746;19.678;2023-05-07T01:12:34;13.50;99.90
42979;DHT22;28616;44.746;19.678;2023-05-07T01:15:02;13.50;99.90
42979;DHT22;28616;44.746;19.678;2023-05-07T01:17:28;13.50;99.90
42979;DHT22;28616;44.746;19.678;2023-05-07T01:19:54;13.50;99.90
42979;DHT22;28616;44.746;19.678;2023-05-07T01:22:35;13.50;99.90
42979;DHT22;28616;44.746;19.678;2023-05-07T01:25:04;13.50;99.90
42979;DHT22;28616;44.746;19.678;2023-05-07T01:27:31;13.40;99.90
42979;DHT22;28616;44.746;19.678;2023-05-07T01:29:59;13.40;99.90
42979;DHT22;28616;44.746;19.678;2023-05-07T01:32:48;13.30;99.90
42979;DHT22;28616;44.746;19.678;2023-05-07T01:35:19;13.30;99.90
42979;DHT22;28616;44.746;19.678;2023-05-07T01:37:47;13.20;99.90
42979;DHT22;28616;44.746;19.678;2023-05-07T01:40:16;13.20;99.90
42979;DHT22;28616;44.746;19.678;2023-05-07T01:42:43;13.20;99.90
42979;DHT22;28616;44.746;19.678;2023-05-07T01:45:10;13.20;99.90
42979;DHT22;28616;44.746;19.678;2023-05-07T01:47:39;13.10;99.90
42979;DHT22;28616;44.746;19.678;2023-05-07T01:50:09;13.20;99.90
42979;DHT22;28616;44.746;19.678;2023-05-07T01:52:39;13.10;99.90
42979;DHT22;28616;44.746;19.678;2023-05-07T01:55:06;13.10;99.90
42979;DHT22;28616;44.746;19.678;2023-05-07T01:57:32;13.20;99.90
42979;DHT22;28616;44.746;19.678;2023-05-07T01:59:58;13.20;99.90
42979;DHT22;28616;44.746;19.678;2023-05-07T02:02:24;13.10;99.90
42979;DHT22;28616;44.746;19.678;2023-05-07T02:04:49;13.10;99.90
42979;DHT22;28616;44.746;19.678;2023-05-07T02:07:15;13.10;99.90
42979;DHT22;28616;44.746;19.678;2023-05-07T02:09:41;13.10;99.90
42979;DHT22;28616;44.746;19.678;2023-05-07T02:12:07;13.10;99.90
42979;DHT22;28616;44.746;19.678;2023-05-07T02:14:32;13.10;99.90
42979;DHT22;28616;44.746;19.678;2023-05-07T02:16:58;13.10;99.90
42979;DHT22;28616;44.746;19.678;2023-05-07T02:19:24;13.10;99.90
42979;DHT22;28616;44.746;19.678;2023-05-07T02:21:50;13.00;99.90
42979;DHT22;28616;44.746;19.678;2023-05-07T02:24:16;13.00;99.90
42979;DHT22;28616;44.746;19.678;2023-05-07T02:26:42;12.90;99.90
42979;DHT22;28616;44.746;19.678;2023-05-07T02:29:08;12.90;99.90
42979;DHT22;28616;44.746;19.678;2023-05-07T02:31:33;12.90;99.90
42979;DHT22;28616;44.746;19.678;2023-05-07T02:34:00;12.80;99.90
42979;DHT22;28616;44.746;19.678;2023-05-07T02:36:25;12.80;99.90
42979;DHT22;28616;44.746;19.678;2023-05-07T02:38:52;12.70;99.90
42979;DHT22;28616;44.746;19.678;2023-05-07T02:41:18;12.70;99.90
42979;DHT22;28616;44.746;19.678;2023-05-07T02:43:43;12.70;99.90
42979;DHT22;28616;44.746;19.678;2023-05-07T02:46:10;12.60;99.90
42979;DHT22;28616;44.746;19.678;2023-05-07T02:48:36;12.60;99.90
42979;DHT22;28616;44.746;19.678;2023-05-07T02:51:02;12.60;99.90
42979;DHT22;28616;44.746;19.678;2023-05-07T02:53:29;12.60;99.90
42979;DHT22;28616;44.746;19.678;2023-05-07T02:56:01;12.70;99.90
42979;DHT22;28616;44.746;19.678;2023-05-07T02:58:28;12.60;99.90
42979;DHT22;28616;44.746;19.678;2023-05-07T03:00:54;12.60;99.90
42979;DHT22;28616;44.746;19.678;2023-05-07T03:03:23;12.60;99.90
42979;DHT22;28616;44.746;19.678;2023-05-07T03:05:49;12.60;99.90
42979;DHT22;28616;44.746;19.678;2023-05-07T03:08:14;12.60;99.90
42979;DHT22;28616;44.746;19.678;2023-05-07T03:10:40;12.60;99.90
42979;DHT22;28616;44.746;19.678;2023-05-07T03:13:06;12.60;99.90
42979;DHT22;28616;44.746;19.678;2023-05-07T03:15:32;12.60;99.90
42979;DHT22;28616;44.746;19.678;2023-05-07T03:17:58;12.50;99.90
42979;DHT22;28616;44.746;19.678;2023-05-07T03:20:23;12.50;99.90
42979;DHT22;28616;44.746;19.678;2023-05-07T03:22:49;12.60;99.90
42979;DHT22;28616;44.746;19.678;2023-05-07T03:25:15;12.50;99.90
42979;DHT22;28616;44.746;19.678;2023-05-07T03:27:41;12.50;99.90
42979;DHT22;28616;44.746;19.678;2023-05-07T03:30:10;12.40;99.90
42979;DHT22;28616;44.746;19.678;2023-05-07T03:32:36;12.30;99.90
42979;DHT22;28616;44.746;19.678;2023-05-07T03:35:02;12.30;99.90
42979;DHT22;28616;44.746;19.678;2023-05-07T03:37:28;12.20;99.90
42979;DHT22;28616;44.746;19.678;2023-05-07T03:39:53;12.10;99.90
42979;DHT22;28616;44.746;19.678;2023-05-07T03:42:19;12.10;99.90
42979;DHT22;28616;44.746;19.678;2023-05-07T03:44:45;12.10;99.90
42979;DHT22;28616;44.746;19.678;2023-05-07T03:47:11;12.10;99.90
42979;DHT22;28616;44.746;19.678;2023-05-07T03:49:39;12.00;99.90
42979;DHT22;28616;44.746;19.678;2023-05-07T03:52:05;12.00;99.90
42979;DHT22;28616;44.746;19.678;2023-05-07T03:54:31;11.80;99.90
42979;DHT22;28616;44.746;19.678;2023-05-07T03:56:57;11.80;99.90
42979;DHT22;28616;44.746;19.678;2023-05-07T03:59:22;11.90;99.90
42979;DHT22;28616;44.746;19.678;2023-05-07T04:01:48;11.80;99.90
42979;DHT22;28616;44.746;19.678;2023-05-07T04:04:14;11.90;99.90
42979;DHT22;28616;44.746;19.678;2023-05-07T04:06:40;11.90;99.90
42979;DHT22;28616;44.746;19.678;2023-05-07T04:09:06;12.00;99.90
42979;DHT22;28616;44.746;19.678;2023-05-07T04:11:34;12.00;99.90
42979;DHT22;28616;44.746;19.678;2023-05-07T04:14:00;12.00;99.90
42979;DHT22;28616;44.746;19.678;2023-05-07T04:16:25;12.00;99.90
42979;DHT22;28616;44.746;19.678;2023-05-07T04:18:51;12.10;99.90
42979;DHT22;28616;44.746;19.678;2023-05-07T04:21:19;12.20;99.90
42979;DHT22;28616;44.746;19.678;2023-05-07T04:23:46;12.30;99.90
42979;DHT22;28616;44.746;19.678;2023-05-07T04:26:12;12.30;99.90
42979;DHT22;28616;44.746;19.678;2023-05-07T04:28:38;12.40;99.90
42979;DHT22;28616;44.746;19.678;2023-05-07T04:31:05;12.50;99.90
42979;DHT22;28616;44.746;19.678;2023-05-07T04:33:31;12.50;99.90
42979;DHT22;28616;44.746;19.678;2023-05-07T04:35:57;12.70;99.90
42979;DHT22;28616;44.746;19.678;2023-05-07T04:38:28;12.80;99.90
42979;DHT22;28616;44.746;19.678;2023-05-07T04:40:55;12.90;99.90
42979;DHT22;28616;44.746;19.678;2023-05-07T04:43:21;12.90;99.90
42979;DHT22;28616;44.746;19.678;2023-05-07T04:45:47;13.00;99.90
42979;DHT22;28616;44.746;19.678;2023-05-07T04:48:14;13.00;99.90
42979;DHT22;28616;44.746;19.678;2023-05-07T04:50:40;13.10;99.90
42979;DHT22;28616;44.746;19.678;2023-05-07T04:53:06;13.30;99.90
42979;DHT22;28616;44.746;19.678;2023-05-07T04:55:32;13.40;99.90
42979;DHT22;28616;44.746;19.678;2023-05-07T04:57:58;13.60;99.90
42979;DHT22;28616;44.746;19.678;2023-05-07T05:00:26;13.70;99.90
42979;DHT22;28616;44.746;19.678;2023-05-07T05:02:51;13.80;99.90
42979;DHT22;28616;44.746;19.678;2023-05-07T05:05:17;13.90;99.90
42979;DHT22;28616;44.746;19.678;2023-05-07T05:07:43;14.00;99.90
42979;DHT22;28616;44.746;19.678;2023-05-07T05:10:09;14.10;99.90
42979;DHT22;28616;44.746;19.678;2023-05-07T05:12:35;14.20;99.90
42979;DHT22;28616;44.746;19.678;2023-05-07T05:15:00;14.20;99.90
42979;DHT22;28616;44.746;19.678;2023-05-07T05:17:26;14.40;99.90
42979;DHT22;28616;44.746;19.678;2023-05-07T05:19:52;14.40;99.90
42979;DHT22;28616;44.746;19.678;2023-05-07T05:22:17;14.50;99.90
42979;DHT22;28616;44.746;19.678;2023-05-07T05:24:43;14.70;99.90
42979;DHT22;28616;44.746;19.678;2023-05-07T05:27:09;14.70;99.90
42979;DHT22;28616;44.746;19.678;2023-05-07T05:29:35;14.80;99.90
42979;DHT22;28616;44.746;19.678;2023-05-07T05:32:00;14.90;99.90
42979;DHT22;28616;44.746;19.678;2023-05-07T05:34:26;15.00;99.90
42979;DHT22;28616;44.746;19.678;2023-05-07T05:36:53;15.00;99.90
42979;DHT22;28616;44.746;19.678;2023-05-07T05:39:18;15.10;99.90
42979;DHT22;28616;44.746;19.678;2023-05-07T05:41:44;15.10;99.90
42979;DHT22;28616;44.746;19.678;2023-05-07T05:44:10;15.10;99.90
42979;DHT22;28616;44.746;19.678;2023-05-07T05:46:36;15.20;99.90
42979;DHT22;28616;44.746;19.678;2023-05-07T05:49:01;15.30;99.90
42979;DHT22;28616;44.746;19.678;2023-05-07T05:51:27;15.40;99.90
42979;DHT22;28616;44.746;19.678;2023-05-07T05:53:53;15.50;99.90
42979;DHT22;28616;44.746;19.678;2023-05-07T05:56:19;15.60;99.90
42979;DHT22;28616;44.746;19.678;2023-05-07T05:58:45;15.70;99.90
42979;DHT22;28616;44.746;19.678;2023-05-07T06:01:11;15.80;99.90
42979;DHT22;28616;44.746;19.678;2023-05-07T06:03:37;15.80;99.90
42979;DHT22;28616;44.746;19.678;2023-05-07T06:06:03;15.90;99.90
42979;DHT22;28616;44.746;19.678;2023-05-07T06:08:29;16.00;99.90
42979;DHT22;28616;44.746;19.678;2023-05-07T06:10:56;16.20;99.90
42979;DHT22;28616;44.746;19.678;2023-05-07T06:13:22;16.20;99.90
42979;DHT22;28616;44.746;19.678;2023-05-07T06:15:49;16.40;99.90
42979;DHT22;28616;44.746;19.678;2023-05-07T06:18:14;16.40;99.90
42979;DHT22;28616;44.746;19.678;2023-05-07T06:20:40;16.60;99.90
42979;DHT22;28616;44.746;19.678;2023-05-07T06:23:06;16.70;99.90
42979;DHT22;28616;44.746;19.678;2023-05-07T06:25:32;16.90;99.90
42979;DHT22;28616;44.746;19.678;2023-05-07T06:27:57;17.00;99.90
42979;DHT22;28616;44.746;19.678;2023-05-07T06:30:23;17.10;99.90
42979;DHT22;28616;44.746;19.678;2023-05-07T06:32:49;17.30;99.90
42979;DHT22;28616;44.746;19.678;2023-05-07T06:35:17;17.40;99.90
42979;DHT22;28616;44.746;19.678;2023-05-07T06:37:42;17.60;99.90
42979;DHT22;28616;44.746;19.678;2023-05-07T06:40:09;17.70;98.30
42979;DHT22;28616;44.746;19.678;2023-05-07T06:42:37;17.80;98.10
42979;DHT22;28616;44.746;19.678;2023-05-07T06:45:14;17.90;94.30
42979;DHT22;28616;44.746;19.678;2023-05-07T06:47:40;18.00;94.50
42979;DHT22;28616;44.746;19.678;2023-05-07T06:50:06;18.10;94.00
42979;DHT22;28616;44.746;19.678;2023-05-07T06:52:32;18.20;95.70
42979;DHT22;28616;44.746;19.678;2023-05-07T06:54:58;18.40;96.60
42979;DHT22;28616;44.746;19.678;2023-05-07T06:57:24;18.50;95.60
42979;DHT22;28616;44.746;19.678;2023-05-07T06:59:50;18.60;94.10
42979;DHT22;28616;44.746;19.678;2023-05-07T07:02:15;18.70;93.60
42979;DHT22;28616;44.746;19.678;2023-05-07T07:04:41;18.90;91.80
42979;DHT22;28616;44.746;19.678;2023-05-07T07:07:07;18.90;91.70
42979;DHT22;28616;44.746;19.678;2023-05-07T07:09:33;19.20;92.50
42979;DHT22;28616;44.746;19.678;2023-05-07T07:11:59;19.30;92.80
42979;DHT22;28616;44.746;19.678;2023-05-07T07:14:25;19.40;90.10
42979;DHT22;28616;44.746;19.678;2023-05-07T07:16:51;19.50;91.60
42979;DHT22;28616;44.746;19.678;2023-05-07T07:19:16;19.60;90.60
42979;DHT22;28616;44.746;19.678;2023-05-07T07:21:42;19.80;90.20
42979;DHT22;28616;44.746;19.678;2023-05-07T07:24:08;19.90;90.00
42979;DHT22;28616;44.746;19.678;2023-05-07T07:26:34;20.00;87.80
42979;DHT22;28616;44.746;19.678;2023-05-07T07:29:00;20.20;90.40
42979;DHT22;28616;44.746;19.678;2023-05-07T07:31:25;20.30;84.00
42979;DHT22;28616;44.746;19.678;2023-05-07T07:33:51;20.50;83.30
42979;DHT22;28616;44.746;19.678;2023-05-07T07:36:17;20.70;86.40
42979;DHT22;28616;44.746;19.678;2023-05-07T07:38:43;20.80;80.70
42979;DHT22;28616;44.746;19.678;2023-05-07T07:41:08;21.00;81.00
42979;DHT22;28616;44.746;19.678;2023-05-07T07:46:01;21.20;75.60
42979;DHT22;28616;44.746;19.678;2023-05-07T07:48:27;21.20;74.50
42979;DHT22;28616;44.746;19.678;2023-05-07T07:50:52;21.40;75.50
42979;DHT22;28616;44.746;19.678;2023-05-07T07:55:45;21.50;73.30
42979;DHT22;28616;44.746;19.678;2023-05-07T07:58:11;21.60;74.50
42979;DHT22;28616;44.746;19.678;2023-05-07T08:00:37;21.80;74.60
42979;DHT22;28616;44.746;19.678;2023-05-07T08:03:02;21.90;72.80
42979;DHT22;28616;44.746;19.678;2023-05-07T08:10:22;22.30;67.70
42979;DHT22;28616;44.746;19.678;2023-05-07T08:12:48;22.40;74.90
42979;DHT22;28616;44.746;19.678;2023-05-07T08:15:15;22.40;70.10
42979;DHT22;28616;44.746;19.678;2023-05-07T08:17:41;22.40;66.10
42979;DHT22;28616;44.746;19.678;2023-05-07T08:20:07;22.60;69.10
42979;DHT22;28616;44.746;19.678;2023-05-07T17:14:27;24.80;41.60
42979;DHT22;28616;44.746;19.678;2023-05-07T17:16:53;24.60;41.50
42979;DHT22;28616;44.746;19.678;2023-05-07T17:19:18;24.50;42.60
42979;DHT22;28616;44.746;19.678;2023-05-07T17:21:44;24.50;43.30
42979;DHT22;28616;44.746;19.678;2023-05-07T17:24:10;24.40;42.70
42979;DHT22;28616;44.746;19.678;2023-05-07T17:26:35;24.30;39.90
42979;DHT22;28616;44.746;19.678;2023-05-07T17:29:03;24.20;40.10
42979;DHT22;28616;44.746;19.678;2023-05-07T17:31:29;24.20;40.30
42979;DHT22;28616;44.746;19.678;2023-05-07T17:33:55;24.10;44.60
42979;DHT22;28616;44.746;19.678;2023-05-07T17:36:22;24.00;44.50
42979;DHT22;28616;44.746;19.678;2023-05-07T17:38:48;23.90;42.30
42979;DHT22;28616;44.746;19.678;2023-05-07T17:41:14;23.80;42.90
42979;DHT22;28616;44.746;19.678;2023-05-07T17:43:40;23.70;44.10
42979;DHT22;28616;44.746;19.678;2023-05-07T17:46:07;23.60;44.80
42979;DHT22;28616;44.746;19.678;2023-05-07T17:48:33;23.60;45.90
42979;DHT22;28616;44.746;19.678;2023-05-07T17:51:02;23.50;45.60
42979;DHT22;28616;44.746;19.678;2023-05-07T17:53:29;23.40;46.00
42979;DHT22;28616;44.746;19.678;2023-05-07T17:55:55;23.30;45.60
42979;DHT22;28616;44.746;19.678;2023-05-07T17:58:20;23.30;46.00
42979;DHT22;28616;44.746;19.678;2023-05-07T18:00:49;23.10;45.60
42979;DHT22;28616;44.746;19.678;2023-05-07T18:03:15;23.10;46.50
42979;DHT22;28616;44.746;19.678;2023-05-07T18:05:41;22.90;46.40
42979;DHT22;28616;44.746;19.678;2023-05-07T18:08:07;22.90;46.70
42979;DHT22;28616;44.746;19.678;2023-05-07T18:10:32;22.90;46.30
42979;DHT22;28616;44.746;19.678;2023-05-07T18:12:58;22.70;48.10
42979;DHT22;28616;44.746;19.678;2023-05-07T18:15:25;22.70;48.00
42979;DHT22;28616;44.746;19.678;2023-05-07T18:17:51;22.60;47.00
42979;DHT22;28616;44.746;19.678;2023-05-07T18:20:16;22.60;46.30
42979;DHT22;28616;44.746;19.678;2023-05-07T18:22:42;22.50;47.60
42979;DHT22;28616;44.746;19.678;2023-05-07T18:25:08;22.50;48.50
42979;DHT22;28616;44.746;19.678;2023-05-07T18:27:34;22.40;49.10
42979;DHT22;28616;44.746;19.678;2023-05-07T18:30:00;22.30;49.20
42979;DHT22;28616;44.746;19.678;2023-05-07T18:32:25;22.30;49.90
42979;DHT22;28616;44.746;19.678;2023-05-07T18:34:51;22.20;50.10
42979;DHT22;28616;44.746;19.678;2023-05-07T18:37:17;22.20;50.20
42979;DHT22;28616;44.746;19.678;2023-05-07T18:39:43;22.00;49.70
42979;DHT22;28616;44.746;19.678;2023-05-07T18:42:09;22.00;49.50
42979;DHT22;28616;44.746;19.678;2023-05-07T18:44:36;21.90;49.30
42979;DHT22;28616;44.746;19.678;2023-05-07T18:47:03;21.90;49.30
42979;DHT22;28616;44.746;19.678;2023-05-07T18:49:31;21.90;50.40
42979;DHT22;28616;44.746;19.678;2023-05-07T18:51:57;21.90;50.80
42979;DHT22;28616;44.746;19.678;2023-05-07T18:54:23;21.80;51.30
42979;DHT22;28616;44.746;19.678;2023-05-07T18:56:48;21.80;51.30
42979;DHT22;28616;44.746;19.678;2023-05-07T18:59:15;21.70;50.80
42979;DHT22;28616;44.746;19.678;2023-05-07T19:01:40;21.70;51.60
42979;DHT22;28616;44.746;19.678;2023-05-07T19:04:07;21.70;52.20
42979;DHT22;28616;44.746;19.678;2023-05-07T19:06:42;21.60;52.80
42979;DHT22;28616;44.746;19.678;2023-05-07T19:09:08;21.60;52.90
42979;DHT22;28616;44.746;19.678;2023-05-07T19:11:34;21.50;52.50
42979;DHT22;28616;44.746;19.678;2023-05-07T19:13:59;21.40;53.40
42979;DHT22;28616;44.746;19.678;2023-05-07T19:16:25;21.40;53.70
42979;DHT22;28616;44.746;19.678;2023-05-07T19:18:51;21.40;53.20
42979;DHT22;28616;44.746;19.678;2023-05-07T19:21:19;21.40;53.10
42979;DHT22;28616;44.746;19.678;2023-05-07T19:23:44;21.30;52.70
42979;DHT22;28616;44.746;19.678;2023-05-07T19:26:11;21.30;54.00
42979;DHT22;28616;44.746;19.678;2023-05-07T19:28:37;21.20;52.60
42979;DHT22;28616;44.746;19.678;2023-05-07T19:31:03;21.10;53.30
42979;DHT22;28616;44.746;19.678;2023-05-07T19:33:31;21.10;53.40
42979;DHT22;28616;44.746;19.678;2023-05-07T19:35:57;21.00;54.50
42979;DHT22;28616;44.746;19.678;2023-05-07T19:38:26;21.00;54.90
42979;DHT22;28616;44.746;19.678;2023-05-07T19:40:53;20.90;54.90
42979;DHT22;28616;44.746;19.678;2023-05-07T19:43:19;20.90;55.00
42979;DHT22;28616;44.746;19.678;2023-05-07T19:45:45;20.80;55.40
42979;DHT22;28616;44.746;19.678;2023-05-07T19:48:13;20.80;55.60
42979;DHT22;28616;44.746;19.678;2023-05-07T19:50:39;20.70;56.20
42979;DHT22;28616;44.746;19.678;2023-05-07T19:53:05;20.70;55.80
42979;DHT22;28616;44.746;19.678;2023-05-07T19:55:31;20.70;56.20
42979;DHT22;28616;44.746;19.678;2023-05-07T19:57:57;20.60;55.30
42979;DHT22;28616;44.746;19.678;2023-05-07T20:00:23;20.50;54.30
42979;DHT22;28616;44.746;19.678;2023-05-07T20:02:51;20.40;54.20
42979;DHT22;28616;44.746;19.678;2023-05-07T20:05:17;20.40;54.60
42979;DHT22;28616;44.746;19.678;2023-05-07T20:07:43;20.50;53.70
42979;DHT22;28616;44.746;19.678;2023-05-07T20:10:09;20.50;54.00
42979;DHT22;28616;44.746;19.678;2023-05-07T20:12:35;20.40;54.00
42979;DHT22;28616;44.746;19.678;2023-05-07T20:15:02;20.50;54.20
42979;DHT22;28616;44.746;19.678;2023-05-07T20:17:27;20.50;55.50
42979;DHT22;28616;44.746;19.678;2023-05-07T20:19:55;20.50;55.00
42979;DHT22;28616;44.746;19.678;2023-05-07T20:22:21;20.60;54.40
42979;DHT22;28616;44.746;19.678;2023-05-07T20:24:48;20.60;55.30
42979;DHT22;28616;44.746;19.678;2023-05-07T20:27:13;20.60;54.60
42979;DHT22;28616;44.746;19.678;2023-05-07T20:29:40;20.60;55.40
42979;DHT22;28616;44.746;19.678;2023-05-07T20:32:06;20.50;55.60
42979;DHT22;28616;44.746;19.678;2023-05-07T20:34:32;20.50;55.90
42979;DHT22;28616;44.746;19.678;2023-05-07T20:36:57;20.40;56.30
42979;DHT22;28616;44.746;19.678;2023-05-07T20:39:23;20.40;57.10
42979;DHT22;28616;44.746;19.678;2023-05-07T20:41:49;20.40;56.90
42979;DHT22;28616;44.746;19.678;2023-05-07T20:44:15;20.30;57.50
42979;DHT22;28616;44.746;19.678;2023-05-07T20:46:41;20.30;57.90
42979;DHT22;28616;44.746;19.678;2023-05-07T20:49:08;20.20;57.90
42979;DHT22;28616;44.746;19.678;2023-05-07T20:51:34;20.20;57.90
42979;DHT22;28616;44.746;19.678;2023-05-07T20:53:59;20.20;58.40
42979;DHT22;28616;44.746;19.678;2023-05-07T20:56:25;20.10;58.40
42979;DHT22;28616;44.746;19.678;2023-05-07T20:58:51;20.10;58.30
42979;DHT22;28616;44.746;19.678;2023-05-07T21:01:17;20.10;59.20
42979;DHT22;28616;44.746;19.678;2023-05-07T21:03:42;20.10;59.90
42979;DHT22;28616;44.746;19.678;2023-05-07T21:06:08;20.10;59.50
42979;DHT22;28616;44.746;19.678;2023-05-07T21:08:34;20.00;60.50
42979;DHT22;28616;44.746;19.678;2023-05-07T21:11:00;20.00;60.60
42979;DHT22;28616;44.746;19.678;2023-05-07T21:13:25;19.90;61.20
42979;DHT22;28616;44.746;19.678;2023-05-07T21:15:51;19.90;61.50
42979;DHT22;28616;44.746;19.678;2023-05-07T21:18:18;19.80;61.50
42979;DHT22;28616;44.746;19.678;2023-05-07T21:20:43;19.70;62.40
42979;DHT22;28616;44.746;19.678;2023-05-07T21:23:09;19.80;62.50
42979;DHT22;28616;44.746;19.678;2023-05-07T21:25:40;19.80;63.30
42979;DHT22;28616;44.746;19.678;2023-05-07T21:28:09;19.80;63.40
42979;DHT22;28616;44.746;19.678;2023-05-07T21:30:35;19.80;64.60
42979;DHT22;28616;44.746;19.678;2023-05-07T21:33:01;19.70;63.60
42979;DHT22;28616;44.746;19.678;2023-05-07T21:35:26;19.80;64.20
42979;DHT22;28616;44.746;19.678;2023-05-07T21:37:52;19.80;64.30
42979;DHT22;28616;44.746;19.678;2023-05-07T21:40:18;19.70;64.20
42979;DHT22;28616;44.746;19.678;2023-05-07T21:42:44;19.70;64.80
42979;DHT22;28616;44.746;19.678;2023-05-07T21:45:10;19.70;64.70
42979;DHT22;28616;44.746;19.678;2023-05-07T21:47:36;19.70;64.80
42979;DHT22;28616;44.746;19.678;2023-05-07T21:50:02;19.70;66.00
42979;DHT22;28616;44.746;19.678;2023-05-07T21:52:28;19.70;65.60
42979;DHT22;28616;44.746;19.678;2023-05-07T21:54:54;19.70;66.20
42979;DHT22;28616;44.746;19.678;2023-05-07T21:57:20;19.70;67.90
42979;DHT22;28616;44.746;19.678;2023-05-07T21:59:45;19.70;67.80
42979;DHT22;28616;44.746;19.678;2023-05-07T22:02:11;19.60;67.10
42979;DHT22;28616;44.746;19.678;2023-05-07T22:04:37;19.60;68.30
42979;DHT22;28616;44.746;19.678;2023-05-07T22:07:03;19.60;67.80
42979;DHT22;28616;44.746;19.678;2023-05-07T22:09:29;19.40;67.50
42979;DHT22;28616;44.746;19.678;2023-05-07T22:11:54;19.30;68.00
42979;DHT22;28616;44.746;19.678;2023-05-07T22:14:21;19.10;68.00
42979;DHT22;28616;44.746;19.678;2023-05-07T22:16:47;19.00;69.00
42979;DHT22;28616;44.746;19.678;2023-05-07T22:19:13;18.80;69.80
42979;DHT22;28616;44.746;19.678;2023-05-07T22:21:40;18.70;70.60
42979;DHT22;28616;44.746;19.678;2023-05-07T22:24:06;18.60;71.60
42979;DHT22;28616;44.746;19.678;2023-05-07T22:26:33;18.50;72.50
42979;DHT22;28616;44.746;19.678;2023-05-07T22:28:59;18.40;74.00
42979;DHT22;28616;44.746;19.678;2023-05-07T22:31:25;18.30;75.50
42979;DHT22;28616;44.746;19.678;2023-05-07T22:33:51;18.10;77.70
42979;DHT22;28616;44.746;19.678;2023-05-07T22:36:17;18.00;80.00
42979;DHT22;28616;44.746;19.678;2023-05-07T22:38:43;17.90;84.60
42979;DHT22;28616;44.746;19.678;2023-05-07T22:41:09;17.70;90.00
42979;DHT22;28616;44.746;19.678;2023-05-07T22:43:34;17.50;93.20
42979;DHT22;28616;44.746;19.678;2023-05-07T22:46:00;17.50;96.50
42979;DHT22;28616;44.746;19.678;2023-05-07T22:48:27;17.50;99.40
42979;DHT22;28616;44.746;19.678;2023-05-07T22:50:53;17.50;99.90
42979;DHT22;28616;44.746;19.678;2023-05-07T22:53:19;17.60;99.90
42979;DHT22;28616;44.746;19.678;2023-05-07T22:55:51;17.60;99.90
42979;DHT22;28616;44.746;19.678;2023-05-07T22:58:17;17.60;99.90
42979;DHT22;28616;44.746;19.678;2023-05-07T23:00:43;17.60;99.90
42979;DHT22;28616;44.746;19.678;2023-05-07T23:03:09;17.60;99.90
42979;DHT22;28616;44.746;19.678;2023-05-07T23:05:35;17.70;99.90
42979;DHT22;28616;44.746;19.678;2023-05-07T23:08:01;17.70;99.90
42979;DHT22;28616;44.746;19.678;2023-05-07T23:10:27;17.70;99.90
42979;DHT22;28616;44.746;19.678;2023-05-07T23:12:53;17.80;99.90
42979;DHT22;28616;44.746;19.678;2023-05-07T23:15:19;17.70;99.90
42979;DHT22;28616;44.746;19.678;2023-05-07T23:17:45;17.70;99.90
42979;DHT22;28616;44.746;19.678;2023-05-07T23:20:12;17.70;99.90
42979;DHT22;28616;44.746;19.678;2023-05-07T23:22:39;17.80;99.90
42979;DHT22;28616;44.746;19.678;2023-05-07T23:25:05;17.80;99.90
42979;DHT22;28616;44.746;19.678;2023-05-07T23:27:33;17.80;99.90
42979;DHT22;28616;44.746;19.678;2023-05-07T23:29:59;17.90;99.90
42979;DHT22;28616;44.746;19.678;2023-05-07T23:32:25;17.90;99.90
42979;DHT22;28616;44.746;19.678;2023-05-07T23:34:51;18.00;99.90
42979;DHT22;28616;44.746;19.678;2023-05-07T23:37:22;18.00;99.90
42979;DHT22;28616;44.746;19.678;2023-05-07T23:39:54;18.00;99.90
42979;DHT22;28616;44.746;19.678;2023-05-07T23:42:19;18.00;99.90
42979;DHT22;28616;44.746;19.678;2023-05-07T23:44:45;18.00;99.90
42979;DHT22;28616;44.746;19.678;2023-05-07T23:47:11;18.00;99.90
42979;DHT22;28616;44.746;19.678;2023-05-07T23:49:37;18.00;99.90
42979;DHT22;28616;44.746;19.678;2023-05-07T23:52:02;18.10;99.90
42979;DHT22;28616;44.746;19.678;2023-05-07T23:54:28;18.00;99.90
42979;DHT22;28616;44.746;19.678;2023-05-07T23:56:54;17.90;99.90
42979;DHT22;28616;44.746;19.678;2023-05-07T23:59:22;17.70;99.90
